sensor_id;sensor_type;location;lat;lon;timestamp;temperature;humidity
18384;DHT22;9318;48.644;9.456;2023-05-29T00:00:39;13.70;99.90
18384;DHT22;9318;48.644;9.456;2023-05-29T00:03:07;13.70;99.90
18384;DHT22;9318;48.644;9.456;2023-05-29T00:05:34;13.70;99.90
18384;DHT22;9318;48.644;9.456;2023-05-29T00:08:01;13.80;99.90
18384;DHT22;9318;48.644;9.456;2023-05-29T00:10:29;13.80;99.90
18384;DHT22;9318;48.644;9.456;2023-05-29T00:12:56;13.70;99.90
18384;DHT22;9318;48.644;9.456;2023-05-29T00:15:23;13.70;99.90
18384;DHT22;9318;48.644;9.456;2023-05-29T00:17:50;13.80;99.90
18384;DHT22;9318;48.644;9.456;2023-05-29T00:20:18;13.80;99.90
18384;DHT22;9318;48.644;9.456;2023-05-29T00:22:45;13.80;99.90
18384;DHT22;9318;48.644;9.456;2023-05-29T00:25:12;13.80;99.90
18384;DHT22;9318;48.644;9.456;2023-05-29T00:27:38;13.90;99.90
18384;DHT22;9318;48.644;9.456;2023-05-29T00:30:06;13.90;99.90
18384;DHT22;9318;48.644;9.456;2023-05-29T00:32:33;13.90;99.90
18384;DHT22;9318;48.644;9.456;2023-05-29T00:35:00;14.00;99.90
18384;DHT22;9318;48.644;9.456;2023-05-29T00:37:29;14.00;99.90
18384;DHT22;9318;48.644;9.456;2023-05-29T00:39:56;14.00;99.90
18384;DHT22;9318;48.644;9.456;2023-05-29T00:42:23;14.00;99.90
18384;DHT22;9318;48.644;9.456;2023-05-29T00:44:49;14.00;99.90
18384;DHT22;9318;48.644;9.456;2023-05-29T00:47:16;13.90;99.90
18384;DHT22;9318;48.644;9.456;2023-05-29T00:49:43;13.80;99.90
18384;DHT22;9318;48.644;9.456;2023-05-29T00:52:10;13.70;99.90
18384;DHT22;9318;48.644;9.456;2023-05-29T00:54:43;13.60;99.90
18384;DHT22;9318;48.644;9.456;2023-05-29T00:57:10;13.60;99.90
18384;DHT22;9318;48.644;9.456;2023-05-29T00:59:39;13.50;99.90
18384;DHT22;9318;48.644;9.456;2023-05-29T01:02:07;13.50;99.90
18384;DHT22;9318;48.644;9.456;2023-05-29T01:04:34;13.40;99.90
18384;DHT22;9318;48.644;9.456;2023-05-29T01:07:03;13.40;99.90
18384;DHT22;9318;48.644;9.456;2023-05-29T01:09:31;13.30;99.90
18384;DHT22;9318;48.644;9.456;2023-05-29T01:12:07;13.20;99.90
18384;DHT22;9318;48.644;9.456;2023-05-29T01:14:41;13.20;99.90
18384;DHT22;9318;48.644;9.456;2023-05-29T01:17:16;13.10;99.90
18384;DHT22;9318;48.644;9.456;2023-05-29T01:20:02;13.00;99.90
18384;DHT22;9318;48.644;9.456;2023-05-29T01:22:41;12.80;99.90
18384;DHT22;9318;48.644;9.456;2023-05-29T01:25:19;12.70;99.90
18384;DHT22;9318;48.644;9.456;2023-05-29T01:27:50;12.60;99.90
18384;DHT22;9318;48.644;9.456;2023-05-29T01:30:18;12.60;99.90
18384;DHT22;9318;48.644;9.456;2023-05-29T01:32:47;12.50;99.90
18384;DHT22;9318;48.644;9.456;2023-05-29T01:35:14;12.40;99.90
18384;DHT22;9318;48.644;9.456;2023-05-29T01:37:40;12.20;99.90
18384;DHT22;9318;48.644;9.456;2023-05-29T01:40:08;12.20;99.90
18384;DHT22;9318;48.644;9.456;2023-05-29T01:42:35;12.20;99.90
18384;DHT22;9318;48.644;9.456;2023-05-29T01:45:04;12.10;99.90
18384;DHT22;9318;48.644;9.456;2023-05-29T01:47:32;12.10;99.90
18384;DHT22;9318;48.644;9.456;2023-05-29T01:49:59;12.00;99.90
18384;DHT22;9318;48.644;9.456;2023-05-29T01:52:26;11.90;99.90
18384;DHT22;9318;48.644;9.456;2023-05-29T01:54:53;11.90;99.90
18384;DHT22;9318;48.644;9.456;2023-05-29T01:57:20;11.90;99.90
18384;DHT22;9318;48.644;9.456;2023-05-29T01:59:47;11.80;99.90
18384;DHT22;9318;48.644;9.456;2023-05-29T02:02:16;11.80;99.90
18384;DHT22;9318;48.644;9.456;2023-05-29T02:04:43;11.70;99.90
18384;DHT22;9318;48.644;9.456;2023-05-29T02:07:09;11.70;99.90
18384;DHT22;9318;48.644;9.456;2023-05-29T02:09:37;11.70;99.90
18384;DHT22;9318;48.644;9.456;2023-05-29T02:12:05;11.60;99.90
18384;DHT22;9318;48.644;9.456;2023-05-29T02:14:32;11.60;99.90
18384;DHT22;9318;48.644;9.456;2023-05-29T02:16:59;11.50;99.90
18384;DHT22;9318;48.644;9.456;2023-05-29T02:19:28;11.50;99.90
18384;DHT22;9318;48.644;9.456;2023-05-29T02:21:55;11.40;99.90
18384;DHT22;9318;48.644;9.456;2023-05-29T02:24:22;11.40;99.90
18384;DHT22;9318;48.644;9.456;2023-05-29T02:26:49;11.40;99.90
18384;DHT22;9318;48.644;9.456;2023-05-29T02:29:16;11.40;99.90
18384;DHT22;9318;48.644;9.456;2023-05-29T02:31:43;11.40;99.90
18384;DHT22;9318;48.644;9.456;2023-05-29T02:34:10;11.30;99.90
18384;DHT22;9318;48.644;9.456;2023-05-29T02:36:38;11.30;99.90
18384;DHT22;9318;48.644;9.456;2023-05-29T02:39:05;11.20;99.90
18384;DHT22;9318;48.644;9.456;2023-05-29T02:41:32;11.20;99.90
18384;DHT22;9318;48.644;9.456;2023-05-29T02:43:59;11.10;99.90
18384;DHT22;9318;48.644;9.456;2023-05-29T02:46:25;11.20;99.90
18384;DHT22;9318;48.644;9.456;2023-05-29T02:48:52;11.10;99.90
18384;DHT22;9318;48.644;9.456;2023-05-29T02:51:19;11.10;99.90
18384;DHT22;9318;48.644;9.456;2023-05-29T02:53:47;11.10;99.90
18384;DHT22;9318;48.644;9.456;2023-05-29T02:56:14;11.10;99.90
18384;DHT22;9318;48.644;9.456;2023-05-29T02:58:42;11.00;99.90
18384;DHT22;9318;48.644;9.456;2023-05-29T03:01:09;11.00;99.90
18384;DHT22;9318;48.644;9.456;2023-05-29T03:03:36;11.00;99.90
18384;DHT22;9318;48.644;9.456;2023-05-29T03:06:03;11.10;99.90
18384;DHT22;9318;48.644;9.456;2023-05-29T03:08:29;11.00;99.90
18384;DHT22;9318;48.644;9.456;2023-05-29T03:10:59;11.00;99.90
18384;DHT22;9318;48.644;9.456;2023-05-29T03:13:25;11.00;99.90
18384;DHT22;9318;48.644;9.456;2023-05-29T03:15:52;11.00;99.90
18384;DHT22;9318;48.644;9.456;2023-05-29T03:18:22;11.00;99.90
18384;DHT22;9318;48.644;9.456;2023-05-29T03:20:49;11.00;99.90
18384;DHT22;9318;48.644;9.456;2023-05-29T03:23:15;10.90;99.90
18384;DHT22;9318;48.644;9.456;2023-05-29T03:25:42;10.90;99.90
18384;DHT22;9318;48.644;9.456;2023-05-29T03:28:10;10.80;99.90
18384;DHT22;9318;48.644;9.456;2023-05-29T03:30:37;10.70;99.90
18384;DHT22;9318;48.644;9.456;2023-05-29T03:33:04;10.70;99.90
18384;DHT22;9318;48.644;9.456;2023-05-29T03:35:31;10.80;99.90
18384;DHT22;9318;48.644;9.456;2023-05-29T03:37:58;10.80;99.90
18384;DHT22;9318;48.644;9.456;2023-05-29T03:40:24;10.80;99.90
18384;DHT22;9318;48.644;9.456;2023-05-29T03:42:51;10.80;99.90
18384;DHT22;9318;48.644;9.456;2023-05-29T03:45:19;10.80;99.90
18384;DHT22;9318;48.644;9.456;2023-05-29T03:47:46;10.80;99.90
18384;DHT22;9318;48.644;9.456;2023-05-29T03:50:13;10.80;99.90
18384;DHT22;9318;48.644;9.456;2023-05-29T03:52:41;10.80;99.90
18384;DHT22;9318;48.644;9.456;2023-05-29T03:55:09;10.70;99.90
18384;DHT22;9318;48.644;9.456;2023-05-29T03:57:38;10.70;99.90
18384;DHT22;9318;48.644;9.456;2023-05-29T04:00:07;10.60;99.90
18384;DHT22;9318;48.644;9.456;2023-05-29T04:02:37;10.60;99.90
18384;DHT22;9318;48.644;9.456;2023-05-29T04:05:05;10.60;99.90
18384;DHT22;9318;48.644;9.456;2023-05-29T04:07:31;10.60;99.90
18384;DHT22;9318;48.644;9.456;2023-05-29T04:09:58;10.60;99.90
18384;DHT22;9318;48.644;9.456;2023-05-29T04:12:25;10.60;99.90
18384;DHT22;9318;48.644;9.456;2023-05-29T04:14:52;10.60;99.90
18384;DHT22;9318;48.644;9.456;2023-05-29T04:17:19;10.60;99.90
18384;DHT22;9318;48.644;9.456;2023-05-29T04:19:47;10.60;99.90
18384;DHT22;9318;48.644;9.456;2023-05-29T04:22:14;10.70;99.90
18384;DHT22;9318;48.644;9.456;2023-05-29T04:24:41;10.80;99.90
18384;DHT22;9318;48.644;9.456;2023-05-29T04:27:08;10.90;99.90
18384;DHT22;9318;48.644;9.456;2023-05-29T04:29:38;10.90;99.90
18384;DHT22;9318;48.644;9.456;2023-05-29T04:32:07;10.90;99.90
18384;DHT22;9318;48.644;9.456;2023-05-29T04:34:35;10.90;99.90
18384;DHT22;9318;48.644;9.456;2023-05-29T04:37:04;11.00;99.90
18384;DHT22;9318;48.644;9.456;2023-05-29T04:39:31;11.10;99.90
18384;DHT22;9318;48.644;9.456;2023-05-29T04:41:58;11.30;99.90
18384;DHT22;9318;48.644;9.456;2023-05-29T04:44:26;11.60;99.90
18384;DHT22;9318;48.644;9.456;2023-05-29T04:46:54;12.10;99.90
18384;DHT22;9318;48.644;9.456;2023-05-29T04:49:22;12.70;99.90
18384;DHT22;9318;48.644;9.456;2023-05-29T04:51:49;13.30;99.90
18384;DHT22;9318;48.644;9.456;2023-05-29T04:54:19;14.00;99.90
18384;DHT22;9318;48.644;9.456;2023-05-29T04:56:46;14.60;99.90
18384;DHT22;9318;48.644;9.456;2023-05-29T04:59:13;15.20;99.90
18384;DHT22;9318;48.644;9.456;2023-05-29T05:01:40;15.60;99.90
18384;DHT22;9318;48.644;9.456;2023-05-29T05:04:08;16.00;99.90
18384;DHT22;9318;48.644;9.456;2023-05-29T05:06:35;16.40;99.90
18384;DHT22;9318;48.644;9.456;2023-05-29T05:09:03;16.70;99.90
18384;DHT22;9318;48.644;9.456;2023-05-29T05:11:31;17.00;99.90
18384;DHT22;9318;48.644;9.456;2023-05-29T05:13:58;17.40;99.90
18384;DHT22;9318;48.644;9.456;2023-05-29T05:16:24;17.70;99.90
18384;DHT22;9318;48.644;9.456;2023-05-29T05:18:51;18.20;99.90
18384;DHT22;9318;48.644;9.456;2023-05-29T05:21:18;18.70;99.90
18384;DHT22;9318;48.644;9.456;2023-05-29T05:23:45;19.00;99.90
18384;DHT22;9318;48.644;9.456;2023-05-29T05:26:12;19.40;99.90
18384;DHT22;9318;48.644;9.456;2023-05-29T05:28:40;19.70;99.90
18384;DHT22;9318;48.644;9.456;2023-05-29T05:31:08;20.00;99.90
18384;DHT22;9318;48.644;9.456;2023-05-29T05:33:35;20.30;99.90
18384;DHT22;9318;48.644;9.456;2023-05-29T05:36:01;20.50;99.90
18384;DHT22;9318;48.644;9.456;2023-05-29T05:38:28;20.80;99.90
18384;DHT22;9318;48.644;9.456;2023-05-29T05:40:55;21.10;99.90
18384;DHT22;9318;48.644;9.456;2023-05-29T05:43:22;21.30;99.90
18384;DHT22;9318;48.644;9.456;2023-05-29T05:45:50;21.60;99.90
18384;DHT22;9318;48.644;9.456;2023-05-29T05:48:16;21.60;99.90
18384;DHT22;9318;48.644;9.456;2023-05-29T05:50:43;21.90;99.90
18384;DHT22;9318;48.644;9.456;2023-05-29T05:53:10;22.30;99.90
18384;DHT22;9318;48.644;9.456;2023-05-29T05:55:37;22.50;99.90
18384;DHT22;9318;48.644;9.456;2023-05-29T05:58:04;22.90;99.90
18384;DHT22;9318;48.644;9.456;2023-05-29T06:00:31;23.40;99.90
18384;DHT22;9318;48.644;9.456;2023-05-29T06:02:59;23.80;99.90
18384;DHT22;9318;48.644;9.456;2023-05-29T06:05:25;24.10;99.90
18384;DHT22;9318;48.644;9.456;2023-05-29T06:07:52;24.50;97.90
18384;DHT22;9318;48.644;9.456;2023-05-29T06:10:19;25.00;98.10
18384;DHT22;9318;48.644;9.456;2023-05-29T06:12:46;25.30;96.20
18384;DHT22;9318;48.644;9.456;2023-05-29T06:15:12;25.50;94.10
18384;DHT22;9318;48.644;9.456;2023-05-29T06:17:40;25.70;96.10
18384;DHT22;9318;48.644;9.456;2023-05-29T06:20:08;25.90;94.40
18384;DHT22;9318;48.644;9.456;2023-05-29T06:22:36;26.30;92.10
18384;DHT22;9318;48.644;9.456;2023-05-29T06:25:03;26.60;91.80
18384;DHT22;9318;48.644;9.456;2023-05-29T06:27:30;26.90;92.60
18384;DHT22;9318;48.644;9.456;2023-05-29T06:29:57;27.30;91.70
18384;DHT22;9318;48.644;9.456;2023-05-29T06:32:24;27.50;91.00
18384;DHT22;9318;48.644;9.456;2023-05-29T06:34:53;27.40;90.40
18384;DHT22;9318;48.644;9.456;2023-05-29T06:37:21;27.40;90.00
18384;DHT22;9318;48.644;9.456;2023-05-29T06:39:47;27.30;89.10
18384;DHT22;9318;48.644;9.456;2023-05-29T06:42:15;27.50;89.10
18384;DHT22;9318;48.644;9.456;2023-05-29T06:44:41;28.00;88.30
18384;DHT22;9318;48.644;9.456;2023-05-29T06:47:08;28.40;84.80
18384;DHT22;9318;48.644;9.456;2023-05-29T06:49:35;28.80;83.60
18384;DHT22;9318;48.644;9.456;2023-05-29T06:52:01;29.10;79.00
18384;DHT22;9318;48.644;9.456;2023-05-29T06:54:29;29.30;78.40
18384;DHT22;9318;48.644;9.456;2023-05-29T06:56:56;29.40;77.40
18384;DHT22;9318;48.644;9.456;2023-05-29T06:59:23;29.20;77.40
18384;DHT22;9318;48.644;9.456;2023-05-29T07:01:50;29.40;81.50
18384;DHT22;9318;48.644;9.456;2023-05-29T07:04:16;29.30;78.60
18384;DHT22;9318;48.644;9.456;2023-05-29T07:06:43;29.40;79.50
18384;DHT22;9318;48.644;9.456;2023-05-29T07:09:10;29.40;78.80
18384;DHT22;9318;48.644;9.456;2023-05-29T07:11:38;29.70;78.20
18384;DHT22;9318;48.644;9.456;2023-05-29T07:14:05;29.70;77.80
18384;DHT22;9318;48.644;9.456;2023-05-29T07:16:32;29.70;77.50
18384;DHT22;9318;48.644;9.456;2023-05-29T07:18:59;29.90;77.30
18384;DHT22;9318;48.644;9.456;2023-05-29T07:21:26;30.00;78.10
18384;DHT22;9318;48.644;9.456;2023-05-29T07:23:52;30.60;77.20
18384;DHT22;9318;48.644;9.456;2023-05-29T07:26:19;30.80;74.80
18384;DHT22;9318;48.644;9.456;2023-05-29T07:28:49;31.00;73.00
18384;DHT22;9318;48.644;9.456;2023-05-29T07:31:16;31.10;72.80
18384;DHT22;9318;48.644;9.456;2023-05-29T07:33:43;31.00;73.20
18384;DHT22;9318;48.644;9.456;2023-05-29T07:36:09;31.00;72.90
18384;DHT22;9318;48.644;9.456;2023-05-29T07:38:36;31.70;71.10
18384;DHT22;9318;48.644;9.456;2023-05-29T07:41:03;32.20;72.70
18384;DHT22;9318;48.644;9.456;2023-05-29T07:43:30;32.30;68.90
18384;DHT22;9318;48.644;9.456;2023-05-29T07:45:58;32.10;68.40
18384;DHT22;9318;48.644;9.456;2023-05-29T07:48:24;32.50;70.30
18384;DHT22;9318;48.644;9.456;2023-05-29T07:50:51;32.60;68.00
18384;DHT22;9318;48.644;9.456;2023-05-29T07:53:18;32.40;68.50
18384;DHT22;9318;48.644;9.456;2023-05-29T07:55:45;33.00;66.70
18384;DHT22;9318;48.644;9.456;2023-05-29T07:58:12;32.90;65.20
18384;DHT22;9318;48.644;9.456;2023-05-29T08:00:39;32.90;69.50
18384;DHT22;9318;48.644;9.456;2023-05-29T08:03:07;33.70;67.80
18384;DHT22;9318;48.644;9.456;2023-05-29T08:05:33;34.00;63.40
18384;DHT22;9318;48.644;9.456;2023-05-29T08:08:00;33.60;65.40
18384;DHT22;9318;48.644;9.456;2023-05-29T08:10:27;33.80;62.50
18384;DHT22;9318;48.644;9.456;2023-05-29T08:12:54;34.00;64.70
18384;DHT22;9318;48.644;9.456;2023-05-29T08:15:20;34.20;63.40
18384;DHT22;9318;48.644;9.456;2023-05-29T08:17:49;34.40;63.60
18384;DHT22;9318;48.644;9.456;2023-05-29T08:20:17;34.00;64.50
18384;DHT22;9318;48.644;9.456;2023-05-29T08:22:44;34.10;61.80
18384;DHT22;9318;48.644;9.456;2023-05-29T08:25:11;34.60;63.90
18384;DHT22;9318;48.644;9.456;2023-05-29T08:27:38;35.10;62.70
18384;DHT22;9318;48.644;9.456;2023-05-29T08:30:05;35.10;61.90
18384;DHT22;9318;48.644;9.456;2023-05-29T08:32:32;35.20;62.60
18384;DHT22;9318;48.644;9.456;2023-05-29T08:34:59;35.20;60.30
18384;DHT22;9318;48.644;9.456;2023-05-29T08:37:28;34.80;62.20
18384;DHT22;9318;48.644;9.456;2023-05-29T08:39:54;34.30;61.60
18384;DHT22;9318;48.644;9.456;2023-05-29T08:42:28;34.10;62.90
18384;DHT22;9318;48.644;9.456;2023-05-29T08:45:02;33.70;63.50
18384;DHT22;9318;48.644;9.456;2023-05-29T08:47:33;33.50;63.70
18384;DHT22;9318;48.644;9.456;2023-05-29T08:50:01;33.60;64.70
18384;DHT22;9318;48.644;9.456;2023-05-29T08:52:32;33.90;66.00
18384;DHT22;9318;48.644;9.456;2023-05-29T08:55:01;34.00;63.40
18384;DHT22;9318;48.644;9.456;2023-05-29T08:57:28;33.80;64.10
18384;DHT22;9318;48.644;9.456;2023-05-29T08:59:56;33.60;63.90
18384;DHT22;9318;48.644;9.456;2023-05-29T09:02:23;33.40;63.00
18384;DHT22;9318;48.644;9.456;2023-05-29T09:04:50;33.20;65.30
18384;DHT22;9318;48.644;9.456;2023-05-29T09:07:19;32.80;67.00
18384;DHT22;9318;48.644;9.456;2023-05-29T09:09:48;32.20;66.40
18384;DHT22;9318;48.644;9.456;2023-05-29T09:12:16;31.70;65.50
18384;DHT22;9318;48.644;9.456;2023-05-29T09:14:44;31.20;69.60
18384;DHT22;9318;48.644;9.456;2023-05-29T09:17:12;30.80;67.40
18384;DHT22;9318;48.644;9.456;2023-05-29T09:19:40;30.10;67.90
18384;DHT22;9318;48.644;9.456;2023-05-29T09:22:08;29.80;72.30
18384;DHT22;9318;48.644;9.456;2023-05-29T09:24:36;29.50;73.60
18384;DHT22;9318;48.644;9.456;2023-05-29T09:27:05;29.10;77.60
18384;DHT22;9318;48.644;9.456;2023-05-29T09:29:37;28.70;72.20
18384;DHT22;9318;48.644;9.456;2023-05-29T09:32:06;28.60;73.30
18384;DHT22;9318;48.644;9.456;2023-05-29T09:34:34;28.40;68.90
18384;DHT22;9318;48.644;9.456;2023-05-29T09:37:02;28.20;72.30
18384;DHT22;9318;48.644;9.456;2023-05-29T09:39:34;28.20;66.30
18384;DHT22;9318;48.644;9.456;2023-05-29T09:42:01;27.90;67.00
18384;DHT22;9318;48.644;9.456;2023-05-29T09:44:30;27.50;66.20
18384;DHT22;9318;48.644;9.456;2023-05-29T09:46:58;27.20;64.90
18384;DHT22;9318;48.644;9.456;2023-05-29T09:49:25;26.70;68.40
18384;DHT22;9318;48.644;9.456;2023-05-29T09:51:53;26.60;70.80
18384;DHT22;9318;48.644;9.456;2023-05-29T09:54:20;26.80;72.20
18384;DHT22;9318;48.644;9.456;2023-05-29T09:56:47;27.00;71.10
18384;DHT22;9318;48.644;9.456;2023-05-29T09:59:15;27.10;68.90
18384;DHT22;9318;48.644;9.456;2023-05-29T10:01:44;27.00;70.30
18384;DHT22;9318;48.644;9.456;2023-05-29T10:04:11;27.20;72.20
18384;DHT22;9318;48.644;9.456;2023-05-29T10:06:43;27.20;73.00
18384;DHT22;9318;48.644;9.456;2023-05-29T10:09:12;27.40;69.40
18384;DHT22;9318;48.644;9.456;2023-05-29T10:11:42;27.00;70.80
18384;DHT22;9318;48.644;9.456;2023-05-29T10:14:13;26.80;71.10
18384;DHT22;9318;48.644;9.456;2023-05-29T10:16:43;26.60;69.30
18384;DHT22;9318;48.644;9.456;2023-05-29T10:19:13;26.60;68.50
18384;DHT22;9318;48.644;9.456;2023-05-29T10:21:42;26.40;70.80
18384;DHT22;9318;48.644;9.456;2023-05-29T10:24:11;26.30;69.70
18384;DHT22;9318;48.644;9.456;2023-05-29T10:26:39;26.40;67.50
18384;DHT22;9318;48.644;9.456;2023-05-29T10:29:11;26.30;67.60
18384;DHT22;9318;48.644;9.456;2023-05-29T10:31:46;26.10;66.20
18384;DHT22;9318;48.644;9.456;2023-05-29T10:34:23;26.00;67.10
18384;DHT22;9318;48.644;9.456;2023-05-29T10:36:59;26.10;70.90
18384;DHT22;9318;48.644;9.456;2023-05-29T10:39:28;26.30;69.80
18384;DHT22;9318;48.644;9.456;2023-05-29T10:41:55;26.60;71.40
18384;DHT22;9318;48.644;9.456;2023-05-29T10:44:39;26.70;72.80
18384;DHT22;9318;48.644;9.456;2023-05-29T10:47:09;26.70;65.30
18384;DHT22;9318;48.644;9.456;2023-05-29T10:49:39;26.70;65.40
18384;DHT22;9318;48.644;9.456;2023-05-29T10:52:06;26.40;63.90
18384;DHT22;9318;48.644;9.456;2023-05-29T10:54:51;26.40;67.50
18384;DHT22;9318;48.644;9.456;2023-05-29T10:57:21;26.50;67.00
18384;DHT22;9318;48.644;9.456;2023-05-29T10:59:52;26.70;68.70
18384;DHT22;9318;48.644;9.456;2023-05-29T11:02:23;26.70;63.80
18384;DHT22;9318;48.644;9.456;2023-05-29T11:05:06;26.60;66.70
18384;DHT22;9318;48.644;9.456;2023-05-29T11:07:51;26.70;64.20
18384;DHT22;9318;48.644;9.456;2023-05-29T11:10:44;26.70;60.00
18384;DHT22;9318;48.644;9.456;2023-05-29T11:13:23;26.90;59.40
18384;DHT22;9318;48.644;9.456;2023-05-29T11:16:13;26.90;61.50
18384;DHT22;9318;48.644;9.456;2023-05-29T11:18:42;27.00;62.10
18384;DHT22;9318;48.644;9.456;2023-05-29T11:21:23;27.10;60.40
18384;DHT22;9318;48.644;9.456;2023-05-29T11:23:55;27.20;58.40
18384;DHT22;9318;48.644;9.456;2023-05-29T11:26:26;27.20;65.90
18384;DHT22;9318;48.644;9.456;2023-05-29T11:28:53;27.30;60.80
18384;DHT22;9318;48.644;9.456;2023-05-29T11:31:23;27.20;61.90
18384;DHT22;9318;48.644;9.456;2023-05-29T11:33:51;27.10;58.80
18384;DHT22;9318;48.644;9.456;2023-05-29T11:36:21;27.20;66.10
18384;DHT22;9318;48.644;9.456;2023-05-29T11:38:48;27.40;59.90
18384;DHT22;9318;48.644;9.456;2023-05-29T11:41:17;27.20;62.40
18384;DHT22;9318;48.644;9.456;2023-05-29T11:43:45;27.20;58.90
18384;DHT22;9318;48.644;9.456;2023-05-29T11:46:21;27.00;58.90
18384;DHT22;9318;48.644;9.456;2023-05-29T11:48:48;26.70;59.80
18384;DHT22;9318;48.644;9.456;2023-05-29T11:51:15;26.70;60.50
18384;DHT22;9318;48.644;9.456;2023-05-29T11:53:46;26.80;62.00
18384;DHT22;9318;48.644;9.456;2023-05-29T11:56:13;26.80;67.30
18384;DHT22;9318;48.644;9.456;2023-05-29T11:58:40;26.90;61.10
18384;DHT22;9318;48.644;9.456;2023-05-29T12:01:07;26.90;66.40
18384;DHT22;9318;48.644;9.456;2023-05-29T12:03:38;27.10;65.50
18384;DHT22;9318;48.644;9.456;2023-05-29T12:06:06;27.40;63.60
18384;DHT22;9318;48.644;9.456;2023-05-29T12:08:33;27.50;66.30
18384;DHT22;9318;48.644;9.456;2023-05-29T12:11:01;27.60;63.20
18384;DHT22;9318;48.644;9.456;2023-05-29T12:13:28;27.50;58.70
18384;DHT22;9318;48.644;9.456;2023-05-29T12:15:56;27.00;57.50
18384;DHT22;9318;48.644;9.456;2023-05-29T12:18:24;26.90;61.80
18384;DHT22;9318;48.644;9.456;2023-05-29T12:20:51;26.80;62.10
18384;DHT22;9318;48.644;9.456;2023-05-29T12:23:22;26.80;62.30
18384;DHT22;9318;48.644;9.456;2023-05-29T12:25:51;26.90;58.20
18384;DHT22;9318;48.644;9.456;2023-05-29T12:28:20;26.70;58.20
18384;DHT22;9318;48.644;9.456;2023-05-29T12:30:48;26.50;59.30
18384;DHT22;9318;48.644;9.456;2023-05-29T12:33:27;26.50;66.40
18384;DHT22;9318;48.644;9.456;2023-05-29T12:35:54;26.60;61.20
18384;DHT22;9318;48.644;9.456;2023-05-29T12:38:22;26.50;60.70
18384;DHT22;9318;48.644;9.456;2023-05-29T12:40:49;26.40;60.10
18384;DHT22;9318;48.644;9.456;2023-05-29T12:43:17;26.40;62.40
18384;DHT22;9318;48.644;9.456;2023-05-29T12:45:45;26.30;64.30
18384;DHT22;9318;48.644;9.456;2023-05-29T12:48:12;26.40;62.30
18384;DHT22;9318;48.644;9.456;2023-05-29T12:50:40;26.20;58.70
18384;DHT22;9318;48.644;9.456;2023-05-29T12:53:07;26.20;59.80
18384;DHT22;9318;48.644;9.456;2023-05-29T12:55:35;26.30;63.40
18384;DHT22;9318;48.644;9.456;2023-05-29T12:58:04;26.30;62.20
18384;DHT22;9318;48.644;9.456;2023-05-29T13:00:33;26.40;62.20
18384;DHT22;9318;48.644;9.456;2023-05-29T13:03:01;26.30;59.30
18384;DHT22;9318;48.644;9.456;2023-05-29T13:05:28;26.10;58.90
18384;DHT22;9318;48.644;9.456;2023-05-29T13:07:55;26.00;58.20
18384;DHT22;9318;48.644;9.456;2023-05-29T13:10:22;25.80;61.90
18384;DHT22;9318;48.644;9.456;2023-05-29T13:12:49;26.00;59.30
18384;DHT22;9318;48.644;9.456;2023-05-29T13:15:19;26.10;59.60
18384;DHT22;9318;48.644;9.456;2023-05-29T13:17:46;26.30;60.10
18384;DHT22;9318;48.644;9.456;2023-05-29T13:20:20;26.20;58.50
18384;DHT22;9318;48.644;9.456;2023-05-29T13:22:47;26.00;58.20
18384;DHT22;9318;48.644;9.456;2023-05-29T13:25:16;26.00;59.40
18384;DHT22;9318;48.644;9.456;2023-05-29T13:27:44;26.00;58.60
18384;DHT22;9318;48.644;9.456;2023-05-29T13:30:12;25.80;65.70
18384;DHT22;9318;48.644;9.456;2023-05-29T13:32:41;25.90;64.50
18384;DHT22;9318;48.644;9.456;2023-05-29T13:35:10;25.70;62.30
18384;DHT22;9318;48.644;9.456;2023-05-29T13:37:39;25.60;59.20
18384;DHT22;9318;48.644;9.456;2023-05-29T13:40:07;25.60;63.90
18384;DHT22;9318;48.644;9.456;2023-05-29T13:42:35;25.70;65.40
18384;DHT22;9318;48.644;9.456;2023-05-29T13:45:03;25.90;61.70
18384;DHT22;9318;48.644;9.456;2023-05-29T13:47:31;25.90;63.40
18384;DHT22;9318;48.644;9.456;2023-05-29T13:49:58;26.00;61.70
18384;DHT22;9318;48.644;9.456;2023-05-29T13:52:25;25.60;58.90
18384;DHT22;9318;48.644;9.456;2023-05-29T13:54:53;25.50;63.10
18384;DHT22;9318;48.644;9.456;2023-05-29T13:57:20;25.30;61.70
18384;DHT22;9318;48.644;9.456;2023-05-29T13:59:46;25.30;62.40
18384;DHT22;9318;48.644;9.456;2023-05-29T14:02:13;25.40;62.90
18384;DHT22;9318;48.644;9.456;2023-05-29T14:04:41;25.40;60.40
18384;DHT22;9318;48.644;9.456;2023-05-29T14:07:09;25.30;60.90
18384;DHT22;9318;48.644;9.456;2023-05-29T14:09:35;25.20;60.70
18384;DHT22;9318;48.644;9.456;2023-05-29T14:12:04;25.10;59.30
18384;DHT22;9318;48.644;9.456;2023-05-29T14:14:32;25.10;63.50
18384;DHT22;9318;48.644;9.456;2023-05-29T14:16:59;25.20;64.40
18384;DHT22;9318;48.644;9.456;2023-05-29T14:19:26;25.30;63.50
18384;DHT22;9318;48.644;9.456;2023-05-29T14:21:52;25.20;61.00
18384;DHT22;9318;48.644;9.456;2023-05-29T14:24:19;25.20;64.90
18384;DHT22;9318;48.644;9.456;2023-05-29T14:26:46;25.20;64.50
18384;DHT22;9318;48.644;9.456;2023-05-29T14:29:14;25.10;61.30
18384;DHT22;9318;48.644;9.456;2023-05-29T14:31:41;25.10;66.90
18384;DHT22;9318;48.644;9.456;2023-05-29T14:34:09;25.10;62.00
18384;DHT22;9318;48.644;9.456;2023-05-29T14:36:36;25.10;63.60
18384;DHT22;9318;48.644;9.456;2023-05-29T14:39:03;25.10;63.10
18384;DHT22;9318;48.644;9.456;2023-05-29T14:41:29;25.10;64.50
18384;DHT22;9318;48.644;9.456;2023-05-29T14:43:57;25.00;63.40
18384;DHT22;9318;48.644;9.456;2023-05-29T14:46:26;25.00;62.90
18384;DHT22;9318;48.644;9.456;2023-05-29T14:48:56;25.00;62.30
18384;DHT22;9318;48.644;9.456;2023-05-29T14:51:23;24.90;62.20
18384;DHT22;9318;48.644;9.456;2023-05-29T14:53:50;24.90;61.60
18384;DHT22;9318;48.644;9.456;2023-05-29T14:56:17;24.90;62.80
18384;DHT22;9318;48.644;9.456;2023-05-29T14:58:44;24.80;63.00
18384;DHT22;9318;48.644;9.456;2023-05-29T15:01:11;24.80;66.90
18384;DHT22;9318;48.644;9.456;2023-05-29T15:03:39;24.90;67.10
18384;DHT22;9318;48.644;9.456;2023-05-29T15:06:06;24.80;67.30
18384;DHT22;9318;48.644;9.456;2023-05-29T15:08:33;24.80;66.60
18384;DHT22;9318;48.644;9.456;2023-05-29T15:11:00;24.80;64.70
18384;DHT22;9318;48.644;9.456;2023-05-29T15:13:28;24.80;63.30
18384;DHT22;9318;48.644;9.456;2023-05-29T15:15:55;24.80;67.50
18384;DHT22;9318;48.644;9.456;2023-05-29T15:18:24;24.90;63.40
18384;DHT22;9318;48.644;9.456;2023-05-29T15:20:52;24.80;66.10
18384;DHT22;9318;48.644;9.456;2023-05-29T15:23:19;24.80;63.80
18384;DHT22;9318;48.644;9.456;2023-05-29T15:25:48;24.70;65.10
18384;DHT22;9318;48.644;9.456;2023-05-29T15:28:15;24.70;63.20
18384;DHT22;9318;48.644;9.456;2023-05-29T15:30:42;24.70;69.20
18384;DHT22;9318;48.644;9.456;2023-05-29T15:33:08;24.70;67.00
18384;DHT22;9318;48.644;9.456;2023-05-29T15:35:36;24.80;65.90
18384;DHT22;9318;48.644;9.456;2023-05-29T15:38:04;24.70;64.70
18384;DHT22;9318;48.644;9.456;2023-05-29T15:40:31;24.70;69.40
18384;DHT22;9318;48.644;9.456;2023-05-29T15:42:58;24.70;67.90
18384;DHT22;9318;48.644;9.456;2023-05-29T15:45:25;24.60;65.00
18384;DHT22;9318;48.644;9.456;2023-05-29T15:47:52;24.50;65.60
18384;DHT22;9318;48.644;9.456;2023-05-29T15:50:19;24.50;68.40